Главная страница
METAR-TAF:

METAR-TAF

Аэропорты :

Измир, Турция

широта: 38-30N, долгота: 027-01E, высота над уровнем моря: 5 м

METAR: отсутствует

Время: 08:57 (05:57 UTC)

Прогноз

Эта сводка был подготовлена 1 час и 17 минут назад, в 04:40 UTC
Прогноз действительный с 21-го 06 UTC до 21-го 15 UTC
Ветер 2 Узел переменных направлений
Видимость 10 км и более
Нет облачности ниже 1500 м, и нет кучево-дождевой облачности
изменения
С 21-го 12 UTC до 21-го 13 UTC
Ветер 12 Узел от северно-северо-западный

TAF: LTBL 210440Z 2106/2115 VRB02KT CAVOK BECMG 2112/2113 33012KT

Метеонаблюдения и прогнозы для более 4000 аэропортов (сводки METAR и TAF).

Имеющиеся станции представлены на карте желтыми и красными точками.

Чтобы увидеть название станции, наведите на нее мышь.

Затем щелкните, чтобы увидеть метеонаблюдения и метеопрогнозы.

Управление картой: чтобы увеличить масштаб, щелкните зеленые кнопки с черным крестиком; чтобы уменьшить масштаб, щелкните зеленую кнопку с тире; для просмотра соседних карт щелкайте зеленые стрелки.


METAR-TAF: